sensor_id;sensor_type;location;lat;lon;timestamp;temperature;humidity
29255;DHT22;16277;48.890;2.306;2023-05-23T00:08:44;19.10;99.90
29255;DHT22;16277;48.890;2.306;2023-05-23T00:23:49;18.90;99.90
29255;DHT22;16277;48.890;2.306;2023-05-23T00:38:53;19.20;99.90
29255;DHT22;16277;48.890;2.306;2023-05-23T00:53:58;19.10;99.90
29255;DHT22;16277;48.890;2.306;2023-05-23T01:09:04;18.80;99.90
29255;DHT22;16277;48.890;2.306;2023-05-23T01:24:29;19.00;99.90
29255;DHT22;16277;48.890;2.306;2023-05-23T01:39:38;18.60;99.90
29255;DHT22;16277;48.890;2.306;2023-05-23T01:54:43;18.60;99.90
29255;DHT22;16277;48.890;2.306;2023-05-23T02:09:51;18.40;99.90
29255;DHT22;16277;48.890;2.306;2023-05-23T02:24:55;18.90;99.90
29255;DHT22;16277;48.890;2.306;2023-05-23T02:40:00;18.50;99.90
29255;DHT22;16277;48.890;2.306;2023-05-23T02:55:06;18.50;99.90
29255;DHT22;16277;48.890;2.306;2023-05-23T03:10:16;17.80;99.90
29255;DHT22;16277;48.890;2.306;2023-05-23T03:25:21;17.20;99.90
29255;DHT22;16277;48.890;2.306;2023-05-23T03:40:25;17.60;99.90
29255;DHT22;16277;48.890;2.306;2023-05-23T03:55:30;18.10;99.90
29255;DHT22;16277;48.890;2.306;2023-05-23T04:10:36;17.70;99.90
29255;DHT22;16277;48.890;2.306;2023-05-23T04:25:41;17.70;99.90
29255;DHT22;16277;48.890;2.306;2023-05-23T04:40:57;17.30;99.90
29255;DHT22;16277;48.890;2.306;2023-05-23T04:56:25;17.70;99.90
29255;DHT22;16277;48.890;2.306;2023-05-23T05:11:30;17.60;99.90
29255;DHT22;16277;48.890;2.306;2023-05-23T05:26:35;17.60;99.90
29255;DHT22;16277;48.890;2.306;2023-05-23T05:41:40;17.80;99.90
29255;DHT22;16277;48.890;2.306;2023-05-23T05:56:46;18.10;99.90
29255;DHT22;16277;48.890;2.306;2023-05-23T06:11:51;18.10;99.90
29255;DHT22;16277;48.890;2.306;2023-05-23T06:26:56;17.90;99.90
29255;DHT22;16277;48.890;2.306;2023-05-23T06:42:00;18.00;99.90
29255;DHT22;16277;48.890;2.306;2023-05-23T06:57:23;18.10;99.90
29255;DHT22;16277;48.890;2.306;2023-05-23T07:12:28;17.90;99.90
29255;DHT22;16277;48.890;2.306;2023-05-23T07:27:36;18.20;99.90
29255;DHT22;16277;48.890;2.306;2023-05-23T07:42:42;18.10;99.90
29255;DHT22;16277;48.890;2.306;2023-05-23T07:57:47;18.30;99.90
29255;DHT22;16277;48.890;2.306;2023-05-23T08:12:53;18.20;99.90
29255;DHT22;16277;48.890;2.306;2023-05-23T08:27:59;18.30;99.90
29255;DHT22;16277;48.890;2.306;2023-05-23T08:43:19;18.30;99.90
29255;DHT22;16277;48.890;2.306;2023-05-23T08:58:24;18.40;99.90
29255;DHT22;16277;48.890;2.306;2023-05-23T09:13:33;18.20;99.90
29255;DHT22;16277;48.890;2.306;2023-05-23T09:28:42;18.50;99.90
29255;DHT22;16277;48.890;2.306;2023-05-23T09:43:51;18.40;99.90
29255;DHT22;16277;48.890;2.306;2023-05-23T09:58:57;18.10;99.90
29255;DHT22;16277;48.890;2.306;2023-05-23T10:14:05;18.40;99.90
29255;DHT22;16277;48.890;2.306;2023-05-23T10:29:10;18.30;99.90
29255;DHT22;16277;48.890;2.306;2023-05-23T10:44:20;18.60;99.90
29255;DHT22;16277;48.890;2.306;2023-05-23T10:59:26;18.60;99.90
29255;DHT22;16277;48.890;2.306;2023-05-23T11:14:52;19.00;99.90
29255;DHT22;16277;48.890;2.306;2023-05-23T11:30:00;18.90;99.90
29255;DHT22;16277;48.890;2.306;2023-05-23T11:45:08;19.20;99.90
29255;DHT22;16277;48.890;2.306;2023-05-23T12:00:14;19.70;99.90
29255;DHT22;16277;48.890;2.306;2023-05-23T12:15:24;19.60;99.90
29255;DHT22;16277;48.890;2.306;2023-05-23T12:30:40;20.00;99.90
29255;DHT22;16277;48.890;2.306;2023-05-23T12:45:45;20.20;99.80
29255;DHT22;16277;48.890;2.306;2023-05-23T13:00:49;20.90;98.50
29255;DHT22;16277;48.890;2.306;2023-05-23T13:15:54;20.70;97.30
29255;DHT22;16277;48.890;2.306;2023-05-23T13:30:59;21.70;94.90
29255;DHT22;16277;48.890;2.306;2023-05-23T13:46:03;22.70;92.70
29255;DHT22;16277;48.890;2.306;2023-05-23T14:01:08;23.70;91.50
29255;DHT22;16277;48.890;2.306;2023-05-23T14:16:12;25.20;86.20
29255;DHT22;16277;48.890;2.306;2023-05-23T14:31:17;26.60;84.50
29255;DHT22;16277;48.890;2.306;2023-05-23T14:46:22;25.30;83.40
29255;DHT22;16277;48.890;2.306;2023-05-23T15:01:27;24.00;85.70
29255;DHT22;16277;48.890;2.306;2023-05-23T15:16:32;25.20;80.40
29255;DHT22;16277;48.890;2.306;2023-05-23T15:31:39;27.00;74.50
29255;DHT22;16277;48.890;2.306;2023-05-23T15:46:43;27.10;74.80
29255;DHT22;16277;48.890;2.306;2023-05-23T16:01:48;29.80;65.10
29255;DHT22;16277;48.890;2.306;2023-05-23T16:16:53;29.10;63.20
29255;DHT22;16277;48.890;2.306;2023-05-23T16:31:57;25.10;72.80
29255;DHT22;16277;48.890;2.306;2023-05-23T16:47:02;26.70;68.20
29255;DHT22;16277;48.890;2.306;2023-05-23T17:02:07;25.70;70.00
29255;DHT22;16277;48.890;2.306;2023-05-23T17:17:13;26.30;68.40
29255;DHT22;16277;48.890;2.306;2023-05-23T17:32:18;24.40;71.30
29255;DHT22;16277;48.890;2.306;2023-05-23T17:47:23;24.30;72.40
29255;DHT22;16277;48.890;2.306;2023-05-23T18:02:27;23.90;74.20
29255;DHT22;16277;48.890;2.306;2023-05-23T18:17:32;23.60;74.40
29255;DHT22;16277;48.890;2.306;2023-05-23T18:32:37;23.90;74.20
29255;DHT22;16277;48.890;2.306;2023-05-23T18:47:42;22.90;76.10
29255;DHT22;16277;48.890;2.306;2023-05-23T19:02:47;22.20;77.10
29255;DHT22;16277;48.890;2.306;2023-05-23T19:17:51;21.80;77.30
29255;DHT22;16277;48.890;2.306;2023-05-23T19:32:57;21.20;78.70
29255;DHT22;16277;48.890;2.306;2023-05-23T19:48:03;21.00;80.40
29255;DHT22;16277;48.890;2.306;2023-05-23T20:03:08;19.90;83.10
29255;DHT22;16277;48.890;2.306;2023-05-23T20:18:13;20.40;83.60
29255;DHT22;16277;48.890;2.306;2023-05-23T20:33:18;19.70;84.50
29255;DHT22;16277;48.890;2.306;2023-05-23T20:48:22;19.90;82.50
29255;DHT22;16277;48.890;2.306;2023-05-23T21:03:27;19.50;82.60
29255;DHT22;16277;48.890;2.306;2023-05-23T21:18:32;19.50;83.80
29255;DHT22;16277;48.890;2.306;2023-05-23T21:33:36;18.60;84.80
29255;DHT22;16277;48.890;2.306;2023-05-23T21:48:41;19.20;83.80
29255;DHT22;16277;48.890;2.306;2023-05-23T22:03:45;18.60;84.70
29255;DHT22;16277;48.890;2.306;2023-05-23T22:18:50;18.60;84.50
29255;DHT22;16277;48.890;2.306;2023-05-23T22:33:54;18.30;84.90
29255;DHT22;16277;48.890;2.306;2023-05-23T22:48:59;18.60;84.70
29255;DHT22;16277;48.890;2.306;2023-05-23T23:04:05;18.40;83.90
29255;DHT22;16277;48.890;2.306;2023-05-23T23:19:10;18.10;83.80
29255;DHT22;16277;48.890;2.306;2023-05-23T23:34:14;18.20;83.00
29255;DHT22;16277;48.890;2.306;2023-05-23T23:49:19;17.70;84.20
